sensor_id;sensor_type;location;lat;lon;timestamp;temperature;humidity
31443;SHT31;18065;55.876;9.830;2023-02-22T00:00:46;21.92;49.29
31443;SHT31;18065;55.876;9.830;2023-02-22T00:03:15;21.93;49.30
31443;SHT31;18065;55.876;9.830;2023-02-22T00:05:49;21.92;49.26
31443;SHT31;18065;55.876;9.830;2023-02-22T00:08:18;21.92;49.26
31443;SHT31;18065;55.876;9.830;2023-02-22T00:10:50;21.92;49.26
31443;SHT31;18065;55.876;9.830;2023-02-22T00:13:18;21.93;49.30
31443;SHT31;18065;55.876;9.830;2023-02-22T00:15:47;21.92;49.27
31443;SHT31;18065;55.876;9.830;2023-02-22T00:18:16;21.90;49.24
31443;SHT31;18065;55.876;9.830;2023-02-22T00:20:45;21.89;49.27
31443;SHT31;18065;55.876;9.830;2023-02-22T00:23:14;21.90;49.25
31443;SHT31;18065;55.876;9.830;2023-02-22T00:25:43;21.89;49.28
31443;SHT31;18065;55.876;9.830;2023-02-22T00:28:14;21.90;49.30
31443;SHT31;18065;55.876;9.830;2023-02-22T00:30:43;21.92;49.33
31443;SHT31;18065;55.876;9.830;2023-02-22T00:33:12;21.87;49.39
31443;SHT31;18065;55.876;9.830;2023-02-22T00:35:41;21.92;49.37
31443;SHT31;18065;55.876;9.830;2023-02-22T00:38:12;21.90;49.44
31443;SHT31;18065;55.876;9.830;2023-02-22T00:40:40;21.90;49.47
31443;SHT31;18065;55.876;9.830;2023-02-22T00:43:09;21.87;49.53
31443;SHT31;18065;55.876;9.830;2023-02-22T00:45:40;21.89;49.56
31443;SHT31;18065;55.876;9.830;2023-02-22T00:48:09;21.90;49.50
31443;SHT31;18065;55.876;9.830;2023-02-22T00:50:37;21.89;49.50
31443;SHT31;18065;55.876;9.830;2023-02-22T00:53:06;21.87;49.59
31443;SHT31;18065;55.876;9.830;2023-02-22T00:55:35;21.90;49.64
31443;SHT31;18065;55.876;9.830;2023-02-22T00:58:04;21.87;49.67
31443;SHT31;18065;55.876;9.830;2023-02-22T01:00:34;21.89;49.65
31443;SHT31;18065;55.876;9.830;2023-02-22T01:03:06;21.87;49.66
31443;SHT31;18065;55.876;9.830;2023-02-22T01:05:35;21.86;49.65
31443;SHT31;18065;55.876;9.830;2023-02-22T01:08:04;21.84;49.69
31443;SHT31;18065;55.876;9.830;2023-02-22T01:10:34;21.83;49.71
31443;SHT31;18065;55.876;9.830;2023-02-22T01:13:02;21.86;49.74
31443;SHT31;18065;55.876;9.830;2023-02-22T01:15:33;21.86;49.67
31443;SHT31;18065;55.876;9.830;2023-02-22T01:18:02;21.86;49.74
31443;SHT31;18065;55.876;9.830;2023-02-22T01:20:33;21.86;49.71
31443;SHT31;18065;55.876;9.830;2023-02-22T01:23:02;21.86;49.72
31443;SHT31;18065;55.876;9.830;2023-02-22T01:25:32;21.86;49.69
31443;SHT31;18065;55.876;9.830;2023-02-22T01:28:01;21.84;49.73
31443;SHT31;18065;55.876;9.830;2023-02-22T01:30:30;21.84;49.75
31443;SHT31;18065;55.876;9.830;2023-02-22T01:32:59;21.84;49.75
31443;SHT31;18065;55.876;9.830;2023-02-22T01:35:29;21.84;49.78
31443;SHT31;18065;55.876;9.830;2023-02-22T01:38:01;21.83;49.79
31443;SHT31;18065;55.876;9.830;2023-02-22T01:40:30;21.86;49.80
31443;SHT31;18065;55.876;9.830;2023-02-22T01:42:59;21.84;49.84
31443;SHT31;18065;55.876;9.830;2023-02-22T01:48:15;21.86;49.87
31443;SHT31;18065;55.876;9.830;2023-02-22T01:50:45;21.83;49.85
31443;SHT31;18065;55.876;9.830;2023-02-22T01:53:20;21.83;49.88
31443;SHT31;18065;55.876;9.830;2023-02-22T01:55:49;21.83;49.91
31443;SHT31;18065;55.876;9.830;2023-02-22T01:58:18;21.81;49.94
31443;SHT31;18065;55.876;9.830;2023-02-22T02:00:47;21.83;49.90
31443;SHT31;18065;55.876;9.830;2023-02-22T02:03:16;21.83;49.89
31443;SHT31;18065;55.876;9.830;2023-02-22T02:05:46;21.83;49.86
31443;SHT31;18065;55.876;9.830;2023-02-22T02:08:23;21.83;49.90
31443;SHT31;18065;55.876;9.830;2023-02-22T02:10:56;21.84;49.90
31443;SHT31;18065;55.876;9.830;2023-02-22T02:13:25;21.83;49.92
31443;SHT31;18065;55.876;9.830;2023-02-22T02:15:54;21.79;49.97
31443;SHT31;18065;55.876;9.830;2023-02-22T02:18:23;21.80;49.96
31443;SHT31;18065;55.876;9.830;2023-02-22T02:21:02;21.83;49.95
31443;SHT31;18065;55.876;9.830;2023-02-22T02:23:37;21.79;49.96
31443;SHT31;18065;55.876;9.830;2023-02-22T02:26:20;21.79;50.03
31443;SHT31;18065;55.876;9.830;2023-02-22T02:34:22;21.79;50.10
31443;SHT31;18065;55.876;9.830;2023-02-22T02:36:53;21.77;50.07
31443;SHT31;18065;55.876;9.830;2023-02-22T02:39:25;21.79;50.07
31443;SHT31;18065;55.876;9.830;2023-02-22T02:41:54;21.77;50.08
31443;SHT31;18065;55.876;9.830;2023-02-22T02:44:25;21.77;50.09
31443;SHT31;18065;55.876;9.830;2023-02-22T02:46:57;21.77;50.11
31443;SHT31;18065;55.876;9.830;2023-02-22T02:49:32;21.76;50.10
31443;SHT31;18065;55.876;9.830;2023-02-22T02:52:02;21.76;50.12
31443;SHT31;18065;55.876;9.830;2023-02-22T02:54:31;21.79;50.16
31443;SHT31;18065;55.876;9.830;2023-02-22T02:57:01;21.79;50.20
31443;SHT31;18065;55.876;9.830;2023-02-22T02:59:30;21.81;50.15
31443;SHT31;18065;55.876;9.830;2023-02-22T03:02:04;21.79;50.18
31443;SHT31;18065;55.876;9.830;2023-02-22T03:04:53;21.79;50.19
31443;SHT31;18065;55.876;9.830;2023-02-22T03:07:31;21.79;50.11
31443;SHT31;18065;55.876;9.830;2023-02-22T03:10:07;21.80;50.11
31443;SHT31;18065;55.876;9.830;2023-02-22T03:12:41;21.79;50.21
31443;SHT31;18065;55.876;9.830;2023-02-22T03:15:12;21.77;50.19
31443;SHT31;18065;55.876;9.830;2023-02-22T03:17:47;21.79;50.15
31443;SHT31;18065;55.876;9.830;2023-02-22T03:20:22;21.79;50.12
31443;SHT31;18065;55.876;9.830;2023-02-22T03:22:57;21.79;50.14
31443;SHT31;18065;55.876;9.830;2023-02-22T03:25:27;21.77;50.16
31443;SHT31;18065;55.876;9.830;2023-02-22T03:27:59;21.79;50.06
31443;SHT31;18065;55.876;9.830;2023-02-22T03:30:30;21.79;50.09
31443;SHT31;18065;55.876;9.830;2023-02-22T03:33:00;21.79;50.06
31443;SHT31;18065;55.876;9.830;2023-02-22T03:35:37;21.77;50.11
31443;SHT31;18065;55.876;9.830;2023-02-22T03:38:08;21.77;50.08
31443;SHT31;18065;55.876;9.830;2023-02-22T03:40:40;21.79;50.06
31443;SHT31;18065;55.876;9.830;2023-02-22T03:43:11;21.79;50.02
31443;SHT31;18065;55.876;9.830;2023-02-22T03:45:41;21.79;50.06
31443;SHT31;18065;55.876;9.830;2023-02-22T03:48:13;21.79;50.01
31443;SHT31;18065;55.876;9.830;2023-02-22T03:50:46;21.77;50.08
31443;SHT31;18065;55.876;9.830;2023-02-22T03:53:16;21.77;50.09
31443;SHT31;18065;55.876;9.830;2023-02-22T03:55:47;21.76;50.07
31443;SHT31;18065;55.876;9.830;2023-02-22T03:58:17;21.77;50.03
31443;SHT31;18065;55.876;9.830;2023-02-22T04:00:47;21.76;50.07
31443;SHT31;18065;55.876;9.830;2023-02-22T04:03:18;21.80;50.02
31443;SHT31;18065;55.876;9.830;2023-02-22T04:05:49;21.79;50.06
31443;SHT31;18065;55.876;9.830;2023-02-22T04:08:18;21.76;50.09
31443;SHT31;18065;55.876;9.830;2023-02-22T04:10:46;21.76;50.12
31443;SHT31;18065;55.876;9.830;2023-02-22T04:13:14;21.73;50.14
31443;SHT31;18065;55.876;9.830;2023-02-22T04:15:43;21.76;50.15
31443;SHT31;18065;55.876;9.830;2023-02-22T04:18:11;21.76;50.15
31443;SHT31;18065;55.876;9.830;2023-02-22T04:20:39;21.73;50.14
31443;SHT31;18065;55.876;9.830;2023-02-22T04:23:11;21.76;50.07
31443;SHT31;18065;55.876;9.830;2023-02-22T04:25:41;21.76;50.03
31443;SHT31;18065;55.876;9.830;2023-02-22T04:28:09;21.74;50.01
31443;SHT31;18065;55.876;9.830;2023-02-22T04:30:37;21.76;49.96
31443;SHT31;18065;55.876;9.830;2023-02-22T04:33:08;21.76;49.96
31443;SHT31;18065;55.876;9.830;2023-02-22T04:35:37;21.73;49.90
31443;SHT31;18065;55.876;9.830;2023-02-22T04:38:05;21.73;49.91
31443;SHT31;18065;55.876;9.830;2023-02-22T04:40:36;21.71;49.83
31443;SHT31;18065;55.876;9.830;2023-02-22T04:43:04;21.74;49.81
31443;SHT31;18065;55.876;9.830;2023-02-22T04:45:33;21.74;49.76
31443;SHT31;18065;55.876;9.830;2023-02-22T04:48:01;21.73;49.77
31443;SHT31;18065;55.876;9.830;2023-02-22T04:50:29;21.71;49.75
31443;SHT31;18065;55.876;9.830;2023-02-22T04:52:58;21.71;49.70
31443;SHT31;18065;55.876;9.830;2023-02-22T04:55:26;21.71;49.68
31443;SHT31;18065;55.876;9.830;2023-02-22T04:57:57;21.73;49.73
31443;SHT31;18065;55.876;9.830;2023-02-22T05:00:26;21.69;49.72
31443;SHT31;18065;55.876;9.830;2023-02-22T05:02:54;21.70;49.68
31443;SHT31;18065;55.876;9.830;2023-02-22T05:05:23;21.69;49.65
31443;SHT31;18065;55.876;9.830;2023-02-22T05:07:51;21.69;49.67
31443;SHT31;18065;55.876;9.830;2023-02-22T05:10:19;21.69;49.70
31443;SHT31;18065;55.876;9.830;2023-02-22T05:12:49;21.69;49.68
31443;SHT31;18065;55.876;9.830;2023-02-22T05:15:20;21.71;49.69
31443;SHT31;18065;55.876;9.830;2023-02-22T05:17:49;21.69;49.72
31443;SHT31;18065;55.876;9.830;2023-02-22T05:20:21;21.69;49.74
31443;SHT31;18065;55.876;9.830;2023-02-22T05:22:49;21.69;49.77
31443;SHT31;18065;55.876;9.830;2023-02-22T05:25:18;21.67;49.93
31443;SHT31;18065;55.876;9.830;2023-02-22T05:27:50;21.69;49.83
31443;SHT31;18065;55.876;9.830;2023-02-22T05:30:23;21.69;49.80
31443;SHT31;18065;55.876;9.830;2023-02-22T05:32:51;21.69;49.78
31443;SHT31;18065;55.876;9.830;2023-02-22T05:35:20;21.69;49.74
31443;SHT31;18065;55.876;9.830;2023-02-22T05:37:49;21.70;49.73
31443;SHT31;18065;55.876;9.830;2023-02-22T05:40:17;21.70;49.73
31443;SHT31;18065;55.876;9.830;2023-02-22T05:42:46;21.71;49.77
31443;SHT31;18065;55.876;9.830;2023-02-22T05:45:15;21.70;49.77
31443;SHT31;18065;55.876;9.830;2023-02-22T05:47:46;21.69;49.77
31443;SHT31;18065;55.876;9.830;2023-02-22T05:50:15;21.69;49.81
31443;SHT31;18065;55.876;9.830;2023-02-22T05:52:44;21.70;49.89
31443;SHT31;18065;55.876;9.830;2023-02-22T05:55:13;21.67;49.94
31443;SHT31;18065;55.876;9.830;2023-02-22T05:57:41;21.70;49.94
31443;SHT31;18065;55.876;9.830;2023-02-22T06:00:13;21.71;49.97
31443;SHT31;18065;55.876;9.830;2023-02-22T06:02:42;21.70;50.01
31443;SHT31;18065;55.876;9.830;2023-02-22T06:05:13;21.70;50.09
31443;SHT31;18065;55.876;9.830;2023-02-22T06:07:42;21.66;50.14
31443;SHT31;18065;55.876;9.830;2023-02-22T06:10:10;21.67;50.19
31443;SHT31;18065;55.876;9.830;2023-02-22T06:12:38;21.69;50.08
31443;SHT31;18065;55.876;9.830;2023-02-22T06:15:08;21.67;50.11
31443;SHT31;18065;55.876;9.830;2023-02-22T06:17:37;21.67;50.17
31443;SHT31;18065;55.876;9.830;2023-02-22T06:20:06;21.65;50.21
31443;SHT31;18065;55.876;9.830;2023-02-22T06:22:38;21.63;50.21
31443;SHT31;18065;55.876;9.830;2023-02-22T06:25:07;21.65;50.15
31443;SHT31;18065;55.876;9.830;2023-02-22T06:27:36;21.60;50.27
31443;SHT31;18065;55.876;9.830;2023-02-22T06:30:05;21.59;50.29
31443;SHT31;18065;55.876;9.830;2023-02-22T06:32:33;21.62;50.22
31443;SHT31;18065;55.876;9.830;2023-02-22T06:35:02;21.63;50.25
31443;SHT31;18065;55.876;9.830;2023-02-22T06:37:30;21.63;50.23
31443;SHT31;18065;55.876;9.830;2023-02-22T06:40:01;21.63;50.16
31443;SHT31;18065;55.876;9.830;2023-02-22T06:42:30;21.66;50.16
31443;SHT31;18065;55.876;9.830;2023-02-22T06:44:58;21.66;50.18
31443;SHT31;18065;55.876;9.830;2023-02-22T06:47:28;21.65;50.19
31443;SHT31;18065;55.876;9.830;2023-02-22T06:49:59;21.65;50.16
31443;SHT31;18065;55.876;9.830;2023-02-22T06:52:27;21.66;50.14
31443;SHT31;18065;55.876;9.830;2023-02-22T06:54:56;21.63;50.14
31443;SHT31;18065;55.876;9.830;2023-02-22T06:57:27;21.63;50.11
31443;SHT31;18065;55.876;9.830;2023-02-22T06:59:55;21.66;50.06
31443;SHT31;18065;55.876;9.830;2023-02-22T07:02:23;21.63;50.02
31443;SHT31;18065;55.876;9.830;2023-02-22T07:04:52;21.62;50.05
31443;SHT31;18065;55.876;9.830;2023-02-22T07:07:21;21.63;50.02
31443;SHT31;18065;55.876;9.830;2023-02-22T07:09:49;21.59;50.02
31443;SHT31;18065;55.876;9.830;2023-02-22T07:12:18;21.58;50.06
31443;SHT31;18065;55.876;9.830;2023-02-22T07:14:49;21.60;49.98
31443;SHT31;18065;55.876;9.830;2023-02-22T07:17:17;21.58;50.04
31443;SHT31;18065;55.876;9.830;2023-02-22T07:19:45;21.63;50.11
31443;SHT31;18065;55.876;9.830;2023-02-22T07:22:14;21.60;50.18
31443;SHT31;18065;55.876;9.830;2023-02-22T07:24:42;21.63;50.18
31443;SHT31;18065;55.876;9.830;2023-02-22T07:27:12;21.65;50.20
31443;SHT31;18065;55.876;9.830;2023-02-22T07:29:41;21.66;50.31
31443;SHT31;18065;55.876;9.830;2023-02-22T07:32:13;21.65;50.29
31443;SHT31;18065;55.876;9.830;2023-02-22T07:34:41;21.65;50.36
31443;SHT31;18065;55.876;9.830;2023-02-22T07:37:10;21.63;50.34
31443;SHT31;18065;55.876;9.830;2023-02-22T07:39:38;21.66;50.42
31443;SHT31;18065;55.876;9.830;2023-02-22T07:42:07;21.62;50.37
31443;SHT31;18065;55.876;9.830;2023-02-22T07:44:36;21.65;50.34
31443;SHT31;18065;55.876;9.830;2023-02-22T07:47:04;21.65;50.44
31443;SHT31;18065;55.876;9.830;2023-02-22T07:49:37;21.63;50.55
31443;SHT31;18065;55.876;9.830;2023-02-22T07:52:05;21.66;50.46
31443;SHT31;18065;55.876;9.830;2023-02-22T07:54:34;21.66;50.38
31443;SHT31;18065;55.876;9.830;2023-02-22T07:57:02;21.66;50.29
31443;SHT31;18065;55.876;9.830;2023-02-22T07:59:31;21.65;50.34
31443;SHT31;18065;55.876;9.830;2023-02-22T08:02:00;21.66;50.36
31443;SHT31;18065;55.876;9.830;2023-02-22T08:04:28;21.66;50.37
31443;SHT31;18065;55.876;9.830;2023-02-22T08:06:59;21.65;50.39
31443;SHT31;18065;55.876;9.830;2023-02-22T08:09:28;21.67;50.34
31443;SHT31;18065;55.876;9.830;2023-02-22T08:11:56;21.66;50.30
31443;SHT31;18065;55.876;9.830;2023-02-22T08:14:24;21.67;50.37
31443;SHT31;18065;55.876;9.830;2023-02-22T08:16:53;21.66;50.43
31443;SHT31;18065;55.876;9.830;2023-02-22T08:19:21;21.67;50.36
31443;SHT31;18065;55.876;9.830;2023-02-22T08:21:49;21.66;50.43
31443;SHT31;18065;55.876;9.830;2023-02-22T08:24:20;21.67;50.39
31443;SHT31;18065;55.876;9.830;2023-02-22T08:26:49;21.69;50.41
31443;SHT31;18065;55.876;9.830;2023-02-22T08:29:17;21.70;50.41
31443;SHT31;18065;55.876;9.830;2023-02-22T08:31:49;21.70;50.33
31443;SHT31;18065;55.876;9.830;2023-02-22T08:34:18;21.71;50.32
31443;SHT31;18065;55.876;9.830;2023-02-22T08:36:46;21.71;50.41
31443;SHT31;18065;55.876;9.830;2023-02-22T08:39:14;21.70;50.38
31443;SHT31;18065;55.876;9.830;2023-02-22T08:41:46;21.71;50.33
31443;SHT31;18065;55.876;9.830;2023-02-22T08:44:14;21.71;50.32
31443;SHT31;18065;55.876;9.830;2023-02-22T08:46:42;21.71;50.25
31443;SHT31;18065;55.876;9.830;2023-02-22T08:49:11;21.77;50.34
31443;SHT31;18065;55.876;9.830;2023-02-22T08:51:39;21.74;50.33
31443;SHT31;18065;55.876;9.830;2023-02-22T08:54:07;21.73;50.32
31443;SHT31;18065;55.876;9.830;2023-02-22T08:56:36;21.74;50.30
31443;SHT31;18065;55.876;9.830;2023-02-22T08:59:07;21.77;50.21
31443;SHT31;18065;55.876;9.830;2023-02-22T09:01:35;21.77;50.25
31443;SHT31;18065;55.876;9.830;2023-02-22T09:04:03;21.77;50.22
31443;SHT31;18065;55.876;9.830;2023-02-22T09:06:32;21.79;50.17
31443;SHT31;18065;55.876;9.830;2023-02-22T09:09:00;21.81;50.14
31443;SHT31;18065;55.876;9.830;2023-02-22T09:11:29;21.81;50.15
31443;SHT31;18065;55.876;9.830;2023-02-22T09:13:57;21.81;50.13
31443;SHT31;18065;55.876;9.830;2023-02-22T09:16:28;21.81;50.12
31443;SHT31;18065;55.876;9.830;2023-02-22T09:18:57;21.83;50.13
31443;SHT31;18065;55.876;9.830;2023-02-22T09:21:26;21.81;50.06
31443;SHT31;18065;55.876;9.830;2023-02-22T09:23:55;21.84;50.06
31443;SHT31;18065;55.876;9.830;2023-02-22T09:26:30;21.81;50.11
31443;SHT31;18065;55.876;9.830;2023-02-22T09:28:58;21.83;50.09
31443;SHT31;18065;55.876;9.830;2023-02-22T09:31:29;21.79;50.04
31443;SHT31;18065;55.876;9.830;2023-02-22T09:33:57;21.83;50.07
31443;SHT31;18065;55.876;9.830;2023-02-22T09:36:26;21.84;50.07
31443;SHT31;18065;55.876;9.830;2023-02-22T09:38:54;21.84;50.08
31443;SHT31;18065;55.876;9.830;2023-02-22T09:41:24;21.84;50.01
31443;SHT31;18065;55.876;9.830;2023-02-22T09:44:00;21.84;50.07
31443;SHT31;18065;55.876;9.830;2023-02-22T09:46:37;21.83;50.01
31443;SHT31;18065;55.876;9.830;2023-02-22T09:49:15;21.84;50.01
31443;SHT31;18065;55.876;9.830;2023-02-22T09:51:44;21.84;50.00
31443;SHT31;18065;55.876;9.830;2023-02-22T09:54:18;21.84;50.05
31443;SHT31;18065;55.876;9.830;2023-02-22T09:56:49;21.86;50.02
31443;SHT31;18065;55.876;9.830;2023-02-22T09:59:20;21.84;49.95
31443;SHT31;18065;55.876;9.830;2023-02-22T10:01:56;21.81;49.94
31443;SHT31;18065;55.876;9.830;2023-02-22T10:04:28;21.81;49.94
31443;SHT31;18065;55.876;9.830;2023-02-22T10:07:00;21.83;49.92
31443;SHT31;18065;55.876;9.830;2023-02-22T10:09:33;21.84;49.94
31443;SHT31;18065;55.876;9.830;2023-02-22T10:12:03;21.86;50.02
31443;SHT31;18065;55.876;9.830;2023-02-22T10:14:42;21.84;50.05
31443;SHT31;18065;55.876;9.830;2023-02-22T10:17:19;21.81;50.19
31443;SHT31;18065;55.876;9.830;2023-02-22T10:19:52;21.76;50.21
31443;SHT31;18065;55.876;9.830;2023-02-22T10:25:11;21.74;50.37
31443;SHT31;18065;55.876;9.830;2023-02-22T10:27:44;21.73;50.41
31443;SHT31;18065;55.876;9.830;2023-02-22T10:30:16;21.74;50.43
31443;SHT31;18065;55.876;9.830;2023-02-22T10:32:50;21.77;50.38
31443;SHT31;18065;55.876;9.830;2023-02-22T10:35:20;21.81;50.30
31443;SHT31;18065;55.876;9.830;2023-02-22T10:37:50;21.80;50.31
31443;SHT31;18065;55.876;9.830;2023-02-22T10:40:20;21.83;50.21
31443;SHT31;18065;55.876;9.830;2023-02-22T10:42:56;21.83;50.23
31443;SHT31;18065;55.876;9.830;2023-02-22T10:45:26;21.84;50.26
31443;SHT31;18065;55.876;9.830;2023-02-22T10:48:00;21.84;50.21
31443;SHT31;18065;55.876;9.830;2023-02-22T10:50:33;21.83;50.16
31443;SHT31;18065;55.876;9.830;2023-02-22T10:53:03;21.84;50.14
31443;SHT31;18065;55.876;9.830;2023-02-22T10:55:32;21.84;50.16
31443;SHT31;18065;55.876;9.830;2023-02-22T10:58:02;21.84;50.11
31443;SHT31;18065;55.876;9.830;2023-02-22T11:00:32;21.87;50.14
31443;SHT31;18065;55.876;9.830;2023-02-22T11:03:14;21.87;50.13
31443;SHT31;18065;55.876;9.830;2023-02-22T11:05:44;21.86;50.21
31443;SHT31;18065;55.876;9.830;2023-02-22T11:08:13;21.86;50.19
31443;SHT31;18065;55.876;9.830;2023-02-22T11:10:42;21.87;50.23
31443;SHT31;18065;55.876;9.830;2023-02-22T11:13:17;21.87;50.20
31443;SHT31;18065;55.876;9.830;2023-02-22T11:15:45;21.84;50.24
31443;SHT31;18065;55.876;9.830;2023-02-22T11:18:23;21.87;50.21
31443;SHT31;18065;55.876;9.830;2023-02-22T11:20:59;21.86;50.17
31443;SHT31;18065;55.876;9.830;2023-02-22T11:23:29;21.86;50.20
31443;SHT31;18065;55.876;9.830;2023-02-22T11:26:01;21.87;50.18
31443;SHT31;18065;55.876;9.830;2023-02-22T11:28:31;21.84;50.20
31443;SHT31;18065;55.876;9.830;2023-02-22T11:31:08;21.84;50.27
31443;SHT31;18065;55.876;9.830;2023-02-22T11:33:40;21.84;50.24
31443;SHT31;18065;55.876;9.830;2023-02-22T11:36:13;21.84;50.27
31443;SHT31;18065;55.876;9.830;2023-02-22T11:38:56;21.84;50.25
31443;SHT31;18065;55.876;9.830;2023-02-22T11:41:25;21.86;50.25
31443;SHT31;18065;55.876;9.830;2023-02-22T11:43:54;21.83;50.36
31443;SHT31;18065;55.876;9.830;2023-02-22T11:46:38;21.86;50.24
31443;SHT31;18065;55.876;9.830;2023-02-22T11:49:10;21.86;50.23
31443;SHT31;18065;55.876;9.830;2023-02-22T11:51:47;21.86;50.20
31443;SHT31;18065;55.876;9.830;2023-02-22T11:54:33;21.86;50.13
31443;SHT31;18065;55.876;9.830;2023-02-22T11:57:10;21.86;50.11
31443;SHT31;18065;55.876;9.830;2023-02-22T11:59:44;21.86;50.09
31443;SHT31;18065;55.876;9.830;2023-02-22T12:02:21;21.89;50.05
31443;SHT31;18065;55.876;9.830;2023-02-22T12:05:00;21.89;50.05
31443;SHT31;18065;55.876;9.830;2023-02-22T12:07:36;21.89;50.07
31443;SHT31;18065;55.876;9.830;2023-02-22T12:10:13;21.87;50.04
31443;SHT31;18065;55.876;9.830;2023-02-22T12:12:53;21.86;50.01
31443;SHT31;18065;55.876;9.830;2023-02-22T12:15:27;21.90;50.00
31443;SHT31;18065;55.876;9.830;2023-02-22T12:17:58;21.89;50.03
31443;SHT31;18065;55.876;9.830;2023-02-22T12:20:33;21.90;50.01
31443;SHT31;18065;55.876;9.830;2023-02-22T12:23:05;21.87;50.13
31443;SHT31;18065;55.876;9.830;2023-02-22T12:25:40;21.86;50.07
31443;SHT31;18065;55.876;9.830;2023-02-22T12:28:15;21.87;50.07
31443;SHT31;18065;55.876;9.830;2023-02-22T12:30:45;21.86;50.08
31443;SHT31;18065;55.876;9.830;2023-02-22T12:33:18;21.86;50.12
31443;SHT31;18065;55.876;9.830;2023-02-22T12:35:51;21.86;50.08
31443;SHT31;18065;55.876;9.830;2023-02-22T12:38:22;21.87;50.10
31443;SHT31;18065;55.876;9.830;2023-02-22T12:41:11;21.87;50.08
31443;SHT31;18065;55.876;9.830;2023-02-22T12:43:43;21.86;50.14
31443;SHT31;18065;55.876;9.830;2023-02-22T12:46:14;21.86;50.10
31443;SHT31;18065;55.876;9.830;2023-02-22T12:48:46;21.89;50.03
31443;SHT31;18065;55.876;9.830;2023-02-22T12:51:24;21.87;50.17
31443;SHT31;18065;55.876;9.830;2023-02-22T12:53:55;21.87;49.97
31443;SHT31;18065;55.876;9.830;2023-02-22T12:56:27;21.92;49.94
31443;SHT31;18065;55.876;9.830;2023-02-22T12:58:59;21.92;49.91
31443;SHT31;18065;55.876;9.830;2023-02-22T13:01:28;21.92;49.94
31443;SHT31;18065;55.876;9.830;2023-02-22T13:03:59;21.93;49.91
31443;SHT31;18065;55.876;9.830;2023-02-22T13:06:38;21.96;49.86
31443;SHT31;18065;55.876;9.830;2023-02-22T13:09:17;21.94;49.87
31443;SHT31;18065;55.876;9.830;2023-02-22T13:11:50;21.94;49.78
31443;SHT31;18065;55.876;9.830;2023-02-22T13:14:31;21.98;49.76
31443;SHT31;18065;55.876;9.830;2023-02-22T13:17:02;21.96;49.83
31443;SHT31;18065;55.876;9.830;2023-02-22T13:19:37;21.96;49.70
31443;SHT31;18065;55.876;9.830;2023-02-22T13:22:12;21.97;49.75
31443;SHT31;18065;55.876;9.830;2023-02-22T13:24:47;22.00;49.78
31443;SHT31;18065;55.876;9.830;2023-02-22T13:27:19;21.96;49.80
31443;SHT31;18065;55.876;9.830;2023-02-22T13:29:51;21.97;49.81
31443;SHT31;18065;55.876;9.830;2023-02-22T13:32:24;21.98;49.70
31443;SHT31;18065;55.876;9.830;2023-02-22T13:35:00;21.97;49.73
31443;SHT31;18065;55.876;9.830;2023-02-22T13:37:43;21.97;49.67
31443;SHT31;18065;55.876;9.830;2023-02-22T13:40:22;21.97;49.70
31443;SHT31;18065;55.876;9.830;2023-02-22T13:43:10;21.96;49.83
31443;SHT31;18065;55.876;9.830;2023-02-22T13:51:31;21.93;49.83
31443;SHT31;18065;55.876;9.830;2023-02-22T13:54:05;21.93;49.81
31443;SHT31;18065;55.876;9.830;2023-02-22T13:56:34;21.96;49.80
31443;SHT31;18065;55.876;9.830;2023-02-22T13:59:03;21.96;49.80
31443;SHT31;18065;55.876;9.830;2023-02-22T14:01:38;21.96;49.77
31443;SHT31;18065;55.876;9.830;2023-02-22T14:04:21;21.92;49.84
31443;SHT31;18065;55.876;9.830;2023-02-22T14:06:50;21.93;49.86
31443;SHT31;18065;55.876;9.830;2023-02-22T14:09:41;21.90;49.88
31443;SHT31;18065;55.876;9.830;2023-02-22T14:15:07;21.94;49.88
31443;SHT31;18065;55.876;9.830;2023-02-22T14:17:40;21.93;49.97
31443;SHT31;18065;55.876;9.830;2023-02-22T14:20:19;21.94;49.88
31443;SHT31;18065;55.876;9.830;2023-02-22T14:22:56;21.94;49.83
31443;SHT31;18065;55.876;9.830;2023-02-22T14:25:36;21.93;49.86
31443;SHT31;18065;55.876;9.830;2023-02-22T14:28:06;21.94;49.91
31443;SHT31;18065;55.876;9.830;2023-02-22T14:30:35;21.93;49.92
31443;SHT31;18065;55.876;9.830;2023-02-22T14:35:48;21.93;49.91
31443;SHT31;18065;55.876;9.830;2023-02-22T14:38:17;21.94;49.90
31443;SHT31;18065;55.876;9.830;2023-02-22T14:40:49;21.94;49.86
31443;SHT31;18065;55.876;9.830;2023-02-22T14:43:19;21.94;49.92
31443;SHT31;18065;55.876;9.830;2023-02-22T14:45:50;21.94;49.93
31443;SHT31;18065;55.876;9.830;2023-02-22T14:48:21;21.94;49.94
31443;SHT31;18065;55.876;9.830;2023-02-22T14:50:52;21.94;49.92
31443;SHT31;18065;55.876;9.830;2023-02-22T14:53:22;21.96;49.93
31443;SHT31;18065;55.876;9.830;2023-02-22T14:55:57;21.94;49.97
31443;SHT31;18065;55.876;9.830;2023-02-22T14:58:28;21.93;50.02
31443;SHT31;18065;55.876;9.830;2023-02-22T15:00:59;21.93;50.04
31443;SHT31;18065;55.876;9.830;2023-02-22T15:03:44;21.93;50.12
31443;SHT31;18065;55.876;9.830;2023-02-22T15:06:14;21.93;50.07
31443;SHT31;18065;55.876;9.830;2023-02-22T15:08:43;21.92;50.12
31443;SHT31;18065;55.876;9.830;2023-02-22T15:11:23;21.93;50.15
31443;SHT31;18065;55.876;9.830;2023-02-22T15:13:55;21.94;50.16
31443;SHT31;18065;55.876;9.830;2023-02-22T15:16:25;21.93;50.13
31443;SHT31;18065;55.876;9.830;2023-02-22T15:18:56;21.94;50.14
31443;SHT31;18065;55.876;9.830;2023-02-22T15:21:26;21.89;50.16
31443;SHT31;18065;55.876;9.830;2023-02-22T15:23:55;21.89;50.12
31443;SHT31;18065;55.876;9.830;2023-02-22T15:26:28;21.90;50.19
31443;SHT31;18065;55.876;9.830;2023-02-22T15:28:59;21.90;50.15
31443;SHT31;18065;55.876;9.830;2023-02-22T15:31:29;21.92;50.13
31443;SHT31;18065;55.876;9.830;2023-02-22T15:34:08;21.89;50.12
31443;SHT31;18065;55.876;9.830;2023-02-22T15:36:36;21.90;50.08
31443;SHT31;18065;55.876;9.830;2023-02-22T15:39:05;21.87;50.10
31443;SHT31;18065;55.876;9.830;2023-02-22T15:41:37;21.84;50.00
31443;SHT31;18065;55.876;9.830;2023-02-22T15:44:06;21.87;50.09
31443;SHT31;18065;55.876;9.830;2023-02-22T15:46:36;21.83;50.04
31443;SHT31;18065;55.876;9.830;2023-02-22T15:49:05;21.83;49.98
31443;SHT31;18065;55.876;9.830;2023-02-22T15:51:35;21.81;49.94
31443;SHT31;18065;55.876;9.830;2023-02-22T15:54:04;21.83;49.89
31443;SHT31;18065;55.876;9.830;2023-02-22T15:56:34;21.81;49.80
31443;SHT31;18065;55.876;9.830;2023-02-22T15:59:07;21.84;49.81
31443;SHT31;18065;55.876;9.830;2023-02-22T16:01:38;21.84;49.74
31443;SHT31;18065;55.876;9.830;2023-02-22T16:04:14;21.83;49.70
31443;SHT31;18065;55.876;9.830;2023-02-22T16:06:43;21.83;49.72
31443;SHT31;18065;55.876;9.830;2023-02-22T16:09:13;21.83;49.58
31443;SHT31;18065;55.876;9.830;2023-02-22T16:11:42;21.80;49.50
31443;SHT31;18065;55.876;9.830;2023-02-22T16:14:27;21.83;49.51
31443;SHT31;18065;55.876;9.830;2023-02-22T16:17:12;21.81;49.42